createdAt,value
2022-11-15T00:01:09.338Z,89.42
2022-11-15T00:03:37.194Z,89.47
2022-11-15T00:06:06.785Z,89.46
2022-11-15T00:08:35.160Z,89.51
2022-11-15T00:11:04.047Z,89.47
2022-11-15T00:13:32.748Z,89.82
2022-11-15T00:16:01.428Z,89.74
2022-11-15T00:18:29.701Z,89.64
2022-11-15T00:20:57.602Z,89.72
2022-11-15T00:23:27.270Z,90.19
2022-11-15T00:25:58.987Z,90.00
2022-11-15T00:28:26.725Z,90.11
2022-11-15T00:30:54.703Z,90.15
2022-11-15T00:33:22.467Z,89.75
2022-11-15T00:35:50.276Z,89.66
2022-11-15T00:38:18.002Z,89.66
2022-11-15T00:40:47.099Z,89.89
2022-11-15T00:43:14.847Z,89.43
2022-11-15T00:45:42.750Z,89.74
2022-11-15T00:48:10.779Z,89.91
2022-11-15T00:50:38.700Z,89.93
2022-11-15T00:53:06.436Z,90.01
2022-11-15T00:55:34.249Z,90.11
2022-11-15T00:58:03.364Z,90.00
2022-11-15T01:00:31.462Z,89.97
2022-11-15T01:02:59.510Z,89.98
2022-11-15T01:05:27.391Z,90.03
2022-11-15T01:07:55.752Z,90.17
2022-11-15T01:10:23.857Z,90.50
2022-11-15T01:12:52.163Z,90.90
2022-11-15T01:15:21.274Z,90.76
2022-11-15T01:17:49.087Z,90.63
2022-11-15T01:20:16.838Z,90.69
2022-11-15T01:22:44.682Z,90.76
2022-11-15T01:25:12.942Z,90.76
2022-11-15T01:27:40.622Z,90.99
2022-11-15T01:30:10.301Z,91.15
2022-11-15T01:32:39.539Z,91.35
2022-11-15T01:35:07.780Z,91.45
2022-11-15T01:37:35.985Z,91.18
2022-11-15T01:40:04.519Z,91.36
2022-11-15T01:42:32.399Z,90.67
2022-11-15T01:45:00.275Z,90.52
2022-11-15T01:47:30.698Z,90.66
2022-11-15T01:50:01.868Z,90.70
2022-11-15T01:52:31.274Z,90.73
2022-11-15T01:55:03.840Z,90.78
2022-11-15T01:57:31.964Z,90.93
2022-11-15T02:00:00.029Z,90.68
2022-11-15T02:02:27.776Z,90.58
2022-11-15T02:04:55.428Z,90.69
2022-11-15T02:07:25.069Z,90.71
2022-11-15T02:09:53.347Z,90.62
2022-11-15T02:12:23.314Z,90.48
2022-11-15T02:14:54.449Z,90.28
2022-11-15T02:17:33.287Z,90.44
2022-11-15T02:20:23.025Z,90.20
2022-11-15T02:23:06.707Z,90.18
2022-11-15T02:25:41.051Z,89.96
2022-11-15T02:28:29.166Z,90.00
2022-11-15T02:31:03.114Z,89.73
2022-11-15T02:33:37.623Z,89.97
2022-11-15T02:36:08.881Z,89.73
2022-11-15T02:38:42.659Z,89.61
2022-11-15T02:41:13.612Z,90.25
2022-11-15T02:44:04.310Z,90.54
2022-11-15T02:46:55.899Z,90.59
2022-11-15T02:49:23.838Z,90.83
2022-11-15T02:51:52.602Z,90.84
2022-11-15T02:54:23.567Z,91.18
2022-11-15T02:56:52.326Z,90.96
2022-11-15T02:59:37.437Z,91.03
2022-11-15T03:02:17.042Z,90.94
2022-11-15T03:04:47.156Z,91.12
2022-11-15T03:07:20.727Z,90.92
2022-11-15T03:09:54.440Z,90.99
2022-11-15T03:12:27.846Z,91.24
2022-11-15T03:14:59.131Z,91.65
2022-11-15T03:17:30.747Z,91.50
2022-11-15T03:20:00.427Z,91.92
2022-11-15T03:22:30.938Z,92.02
2022-11-15T03:25:01.325Z,92.08
2022-11-15T03:28:19.121Z,91.92
2022-11-15T03:30:48.389Z,92.41
2022-11-15T03:33:18.646Z,92.63
2022-11-15T03:35:47.399Z,92.86
2022-11-15T03:38:18.943Z,92.70
2022-11-15T03:40:50.146Z,92.90
2022-11-15T03:43:26.267Z,92.68
2022-11-15T03:45:58.291Z,92.49
2022-11-15T03:48:29.619Z,92.41
2022-11-15T03:50:57.796Z,92.36
2022-11-15T03:53:25.571Z,91.79
2022-11-15T03:55:53.461Z,91.95
2022-11-15T03:58:21.259Z,91.67
2022-11-15T04:00:49.155Z,91.21
2022-11-15T04:03:17.189Z,91.30
2022-11-15T04:06:15.658Z,91.14
2022-11-15T04:09:24.394Z,91.15
2022-11-15T04:11:52.575Z,91.10
2022-11-15T04:14:20.267Z,90.40
2022-11-15T04:16:48.198Z,90.92
2022-11-15T04:20:16.543Z,91.26
2022-11-15T04:23:03.399Z,91.47
2022-11-15T04:25:32.572Z,91.42
2022-11-15T04:28:00.552Z,91.22
2022-11-15T04:30:28.242Z,90.73
2022-11-15T04:32:56.219Z,90.91
2022-11-15T04:35:24.084Z,90.91
2022-11-15T04:38:01.135Z,91.08
2022-11-15T04:40:28.802Z,91.19
2022-11-15T04:43:03.287Z,91.32
2022-11-15T04:45:31.857Z,91.45
2022-11-15T04:47:59.549Z,91.59
2022-11-15T04:50:27.256Z,91.81
2022-11-15T04:52:56.152Z,91.47
2022-11-15T04:55:25.371Z,91.28
2022-11-15T04:58:00.941Z,91.30
2022-11-15T05:00:30.265Z,91.59
2022-11-15T05:03:15.620Z,91.63
2022-11-15T05:05:43.680Z,91.39
2022-11-15T05:08:11.466Z,91.73
2022-11-15T05:10:40.866Z,91.85
2022-11-15T05:13:08.618Z,91.73
2022-11-15T05:15:36.366Z,91.70
2022-11-15T05:18:04.243Z,91.72
2022-11-15T05:20:31.899Z,91.77
2022-11-15T05:22:59.774Z,91.67
2022-11-15T05:25:28.088Z,91.86
2022-11-15T05:27:57.140Z,91.60
2022-11-15T05:30:24.881Z,91.86
2022-11-15T05:32:52.875Z,91.78
2022-11-15T05:35:24.158Z,91.58
2022-11-15T05:37:51.797Z,91.60
2022-11-15T05:40:19.663Z,91.18
2022-11-15T05:42:48.203Z,91.25
2022-11-15T05:45:21.268Z,90.88
2022-11-15T05:47:51.966Z,90.90
2022-11-15T05:50:20.582Z,90.70
2022-11-15T05:52:48.638Z,90.95
2022-11-15T05:55:16.707Z,90.62
2022-11-15T05:57:44.592Z,90.74
2022-11-15T06:00:13.518Z,90.58
2022-11-15T06:02:43.492Z,90.46
2022-11-15T06:05:11.430Z,90.05
2022-11-15T06:07:39.330Z,89.92
2022-11-15T06:10:09.554Z,89.94
2022-11-15T06:12:38.476Z,89.68
2022-11-15T06:15:09.846Z,89.76
2022-11-15T06:17:37.667Z,89.73
2022-11-15T06:20:07.798Z,89.89
2022-11-15T06:22:35.522Z,90.14
2022-11-15T06:25:05.583Z,90.21
2022-11-15T06:27:33.634Z,89.84
2022-11-15T06:30:01.378Z,89.89
2022-11-15T06:32:30.739Z,89.66
2022-11-15T06:34:58.729Z,89.21
2022-11-15T06:37:27.797Z,89.24
2022-11-15T06:39:55.630Z,89.22
2022-11-15T06:42:23.649Z,89.36
2022-11-15T06:44:51.574Z,89.38
2022-11-15T06:47:19.487Z,89.23
2022-11-15T06:49:47.238Z,88.88
2022-11-15T06:52:15.161Z,88.33
2022-11-15T06:54:44.237Z,88.01
2022-11-15T06:57:11.904Z,87.81
2022-11-15T06:59:40.745Z,88.25
2022-11-15T07:02:12.633Z,87.99
2022-11-15T07:04:40.318Z,87.16
2022-11-15T07:07:08.201Z,86.15
2022-11-15T07:09:36.160Z,86.22
2022-11-15T07:12:07.899Z,86.12
2022-11-15T07:14:35.934Z,83.72
2022-11-15T07:17:05.787Z,82.48
2022-11-15T07:19:33.712Z,81.54
2022-11-15T07:22:01.366Z,80.06
2022-11-15T07:24:28.991Z,78.58
2022-11-15T07:26:56.854Z,76.61
2022-11-15T07:29:26.083Z,71.64
2022-11-15T07:31:54.183Z,68.69
2022-11-15T07:34:21.829Z,68.59
2022-11-15T07:36:49.564Z,66.42
2022-11-15T07:39:17.242Z,62.79
2022-11-15T07:41:45.684Z,63.51
2022-11-15T07:44:13.545Z,61.71
2022-11-15T07:46:43.358Z,59.14
2022-11-15T07:49:11.262Z,58.84
2022-11-15T07:51:39.515Z,59.53
2022-11-15T07:54:07.379Z,59.42
2022-11-15T07:56:35.262Z,57.78
2022-11-15T07:59:03.073Z,57.00
2022-11-15T08:01:31.001Z,55.40
2022-11-15T08:04:00.325Z,52.42
2022-11-15T08:06:28.159Z,48.62
2022-11-15T08:08:55.843Z,47.82
2022-11-15T08:11:23.812Z,47.32
2022-11-15T08:13:51.590Z,47.11
2022-11-15T08:16:19.626Z,46.92
2022-11-15T08:18:47.612Z,43.48
2022-11-15T08:21:21.155Z,41.68
2022-11-15T08:23:49.509Z,40.95
2022-11-15T08:26:18.419Z,41.10
2022-11-15T08:28:46.893Z,37.70
2022-11-15T08:31:17.805Z,37.35
2022-11-15T08:33:46.762Z,36.31
2022-11-15T08:36:19.736Z,36.27
2022-11-15T08:38:47.941Z,35.79
2022-11-15T08:41:27.919Z,34.82
2022-11-15T08:43:55.957Z,34.45
2022-11-15T08:46:23.769Z,33.89
2022-11-15T08:48:51.566Z,34.38
2022-11-15T08:51:20.871Z,33.50
2022-11-15T08:53:48.975Z,33.72
2022-11-15T08:56:17.131Z,33.61
2022-11-15T08:58:44.865Z,33.87
2022-11-15T09:01:18.997Z,34.20
2022-11-15T09:03:46.800Z,35.61
2022-11-15T09:06:14.899Z,35.90
2022-11-15T09:08:48.352Z,37.51
2022-11-15T09:11:17.662Z,39.47
2022-11-15T09:13:45.531Z,39.08
2022-11-15T09:16:13.948Z,38.74
2022-11-15T09:18:41.847Z,38.17
2022-11-15T09:21:10.238Z,38.12
2022-11-15T09:23:38.164Z,39.57
2022-11-15T09:26:07.895Z,40.69
2022-11-15T09:28:36.491Z,40.62
2022-11-15T09:31:06.047Z,39.46
2022-11-15T09:33:34.141Z,39.70
2022-11-15T09:36:07.715Z,40.50
2022-11-15T09:38:39.546Z,40.24
2022-11-15T09:41:39.982Z,40.41
2022-11-15T09:44:25.981Z,39.42
2022-11-15T09:46:59.308Z,38.61
2022-11-15T09:49:27.526Z,38.50
2022-11-15T09:51:56.245Z,37.56
2022-11-15T09:54:52.322Z,37.81
2022-11-15T09:57:21.781Z,39.22
2022-11-15T10:00:23.782Z,37.19
2022-11-15T10:03:12.820Z,36.20
2022-11-15T10:05:42.469Z,35.83
2022-11-15T10:08:28.984Z,37.03
2022-11-15T10:11:22.576Z,38.64
2022-11-15T10:13:50.450Z,37.88
2022-11-15T10:16:51.516Z,36.01
2022-11-15T10:19:30.155Z,34.78
2022-11-15T10:22:17.513Z,33.57
2022-11-15T10:24:47.064Z,32.59
2022-11-15T10:27:23.889Z,32.08
2022-11-15T10:29:52.955Z,31.33
2022-11-15T10:32:22.205Z,31.24
2022-11-15T10:34:50.907Z,30.54
2022-11-15T10:37:40.512Z,29.76
2022-11-15T10:40:18.311Z,29.52
2022-11-15T10:42:45.961Z,31.43
2022-11-15T10:45:30.240Z,30.34
2022-11-15T10:48:23.615Z,29.58
2022-11-15T10:50:52.248Z,30.79
2022-11-15T10:53:24.163Z,29.87
2022-11-15T10:55:54.304Z,28.92
2022-11-15T10:58:25.356Z,29.20
2022-11-15T11:00:55.697Z,29.88
2022-11-15T11:03:30.700Z,30.13
2022-11-15T11:06:10.931Z,30.71
2022-11-15T11:08:38.918Z,30.97
2022-11-15T11:11:08.025Z,31.29
2022-11-15T11:13:37.081Z,32.68
2022-11-15T11:16:28.597Z,32.75
2022-11-15T11:19:04.431Z,32.27
2022-11-15T11:21:43.740Z,35.28
2022-11-15T11:24:17.243Z,35.90
2022-11-15T11:26:58.645Z,35.70
2022-11-15T11:29:35.018Z,34.36
2022-11-15T11:32:08.038Z,34.20
2022-11-15T11:34:46.640Z,33.54
2022-11-15T11:37:19.928Z,33.13
2022-11-15T11:39:56.341Z,33.69
2022-11-15T11:42:29.265Z,34.40
2022-11-15T11:45:12.171Z,33.41
2022-11-15T11:47:43.003Z,33.33
2022-11-15T11:50:15.665Z,33.77
2022-11-15T11:52:45.967Z,34.33
2022-11-15T11:55:21.404Z,34.37
2022-11-15T11:57:53.067Z,35.32
2022-11-15T12:00:21.535Z,36.16
2022-11-15T12:02:59.004Z,37.14
2022-11-15T12:05:32.667Z,38.93
2022-11-15T12:08:06.735Z,38.55
2022-11-15T12:10:35.861Z,38.75
2022-11-15T12:13:06.996Z,39.29
2022-11-15T12:15:38.621Z,37.69
2022-11-15T12:18:11.344Z,37.49
2022-11-15T12:20:44.835Z,38.02
2022-11-15T12:23:17.460Z,38.43
2022-11-15T12:25:49.737Z,37.46
2022-11-15T12:28:22.806Z,37.67
2022-11-15T12:31:04.298Z,36.67
2022-11-15T12:33:38.775Z,36.96
2022-11-15T12:36:10.231Z,36.76
2022-11-15T12:38:56.694Z,37.12
2022-11-15T12:41:28.918Z,36.28
2022-11-15T12:43:57.523Z,37.86
2022-11-15T12:47:03.608Z,37.73
2022-11-15T12:49:49.173Z,37.71
2022-11-15T12:52:17.499Z,38.30
2022-11-15T12:55:31.627Z,40.07
2022-11-15T12:58:43.039Z,40.20
2022-11-15T13:01:11.657Z,40.58
2022-11-15T13:04:13.133Z,40.84
2022-11-15T13:06:44.725Z,42.69
2022-11-15T13:09:49.707Z,43.59
2022-11-15T13:12:50.895Z,42.60
2022-11-15T13:15:43.414Z,42.02
2022-11-15T13:18:41.706Z,42.92
2022-11-15T13:21:41.719Z,42.77
2022-11-15T13:24:15.727Z,42.78
2022-11-15T13:26:43.913Z,43.81
2022-11-15T13:29:18.371Z,44.71
2022-11-15T13:31:47.159Z,44.40
2022-11-15T13:37:31.159Z,46.18
2022-11-15T13:40:18.176Z,46.53
2022-11-15T13:42:46.181Z,46.63
2022-11-15T13:45:17.031Z,46.99
2022-11-15T13:47:46.368Z,47.69
2022-11-15T13:50:14.965Z,48.10
2022-11-15T13:52:45.608Z,48.21
2022-11-15T13:55:19.343Z,48.35
2022-11-15T13:58:01.913Z,48.96
2022-11-15T14:00:40.045Z,50.10
2022-11-15T14:03:16.323Z,51.40
2022-11-15T14:05:45.147Z,51.96
2022-11-15T14:08:24.718Z,52.35
2022-11-15T14:11:10.074Z,52.59
2022-11-15T14:13:38.167Z,52.63
2022-11-15T14:16:16.864Z,53.43
2022-11-15T14:18:47.769Z,54.08
2022-11-15T14:21:15.838Z,54.46
2022-11-15T14:23:44.158Z,55.09
2022-11-15T14:26:29.204Z,55.11
2022-11-15T14:28:57.062Z,55.02
2022-11-15T14:31:25.064Z,55.65
2022-11-15T14:33:52.983Z,55.35
2022-11-15T14:36:22.345Z,56.09
2022-11-15T14:38:50.380Z,56.49
2022-11-15T14:41:34.604Z,56.99
2022-11-15T14:44:02.729Z,57.71
2022-11-15T14:46:30.464Z,57.84
2022-11-15T14:48:58.328Z,58.31
2022-11-15T14:51:26.966Z,58.60
2022-11-15T14:53:56.265Z,58.80
2022-11-15T14:56:25.711Z,59.19
2022-11-15T14:59:01.169Z,59.61
2022-11-15T15:01:29.505Z,60.09
2022-11-15T15:03:59.322Z,60.14
2022-11-15T15:06:28.153Z,60.28
2022-11-15T15:08:56.127Z,61.08
2022-11-15T15:11:29.412Z,60.73
2022-11-15T15:14:01.990Z,60.55
2022-11-15T15:16:29.883Z,60.43
2022-11-15T15:18:57.644Z,61.45
2022-11-15T15:21:33.593Z,62.24
2022-11-15T15:24:03.439Z,62.83
2022-11-15T15:26:35.006Z,63.36
2022-11-15T15:29:02.909Z,63.86
2022-11-15T15:31:32.550Z,64.31
2022-11-15T15:34:00.336Z,65.00
2022-11-15T15:36:28.231Z,64.95
2022-11-15T15:38:57.674Z,64.74
2022-11-15T15:41:25.685Z,64.80
2022-11-15T15:43:54.695Z,65.09
2022-11-15T15:46:23.019Z,65.12
2022-11-15T15:48:50.886Z,66.07
2022-11-15T15:51:20.656Z,66.75
2022-11-15T15:53:48.834Z,66.59
2022-11-15T15:56:16.550Z,66.97
2022-11-15T15:58:44.635Z,66.99
2022-11-15T16:01:14.514Z,67.05
2022-11-15T16:03:42.487Z,67.65
2022-11-15T16:06:28.316Z,68.44
2022-11-15T16:09:14.201Z,68.69
2022-11-15T16:11:43.714Z,69.37
2022-11-15T16:14:11.466Z,70.80
2022-11-15T16:16:40.973Z,70.15
2022-11-15T16:19:10.425Z,69.89
2022-11-15T16:21:38.336Z,69.95
2022-11-15T16:24:06.654Z,70.32
2022-11-15T16:26:35.467Z,70.35
2022-11-15T16:29:03.292Z,69.80
2022-11-15T16:31:31.000Z,69.63
2022-11-15T16:34:00.418Z,69.89
2022-11-15T16:36:31.297Z,70.38
2022-11-15T16:38:59.329Z,72.13
2022-11-15T16:41:28.229Z,72.36
2022-11-15T16:43:56.137Z,73.06
2022-11-15T16:46:25.228Z,73.14
2022-11-15T16:49:33.213Z,72.20
2022-11-15T16:52:02.555Z,72.15
2022-11-15T16:54:30.401Z,71.94
2022-11-15T16:56:58.132Z,71.31
2022-11-15T16:59:25.918Z,71.43
2022-11-15T17:01:53.937Z,71.08
2022-11-15T17:04:22.702Z,70.89
2022-11-15T17:06:50.952Z,71.35
2022-11-15T17:09:24.890Z,71.18
2022-11-15T17:11:52.878Z,71.08
2022-11-15T17:14:20.783Z,71.29
2022-11-15T17:16:48.615Z,70.80
2022-11-15T17:19:18.317Z,70.90
2022-11-15T17:21:49.756Z,71.14
2022-11-15T17:24:17.804Z,71.54
2022-11-15T17:26:47.319Z,71.72
2022-11-15T17:29:15.202Z,71.59
2022-11-15T17:31:42.874Z,71.82
2022-11-15T17:34:10.643Z,71.60
2022-11-15T17:36:38.370Z,71.39
2022-11-15T17:39:06.563Z,71.04
2022-11-15T17:41:34.467Z,71.01
2022-11-15T17:44:05.032Z,70.69
2022-11-15T17:46:33.519Z,71.15
2022-11-15T17:49:01.700Z,70.99
2022-11-15T17:51:30.175Z,70.67
2022-11-15T17:53:58.171Z,71.78
2022-11-15T17:56:27.591Z,72.08
2022-11-15T17:58:58.823Z,71.63
2022-11-15T18:01:29.454Z,72.29
2022-11-15T18:04:03.023Z,73.06
2022-11-15T18:06:32.873Z,73.32
2022-11-15T18:09:01.360Z,73.34
2022-11-15T18:11:33.107Z,73.53
2022-11-15T18:14:02.962Z,73.15
2022-11-15T18:16:33.674Z,72.70
2022-11-15T18:19:01.923Z,73.33
2022-11-15T18:21:31.805Z,73.71
2022-11-15T18:24:00.949Z,73.78
2022-11-15T18:26:30.680Z,73.99
2022-11-15T18:29:06.343Z,73.28
2022-11-15T18:31:35.498Z,74.73
2022-11-15T18:34:03.625Z,74.15
2022-11-15T18:36:33.878Z,73.48
2022-11-15T18:39:06.139Z,73.94
2022-11-15T18:41:35.751Z,73.54
2022-11-15T18:44:04.009Z,73.28
2022-11-15T18:46:33.260Z,73.00
2022-11-15T18:49:14.341Z,72.88
2022-11-15T18:51:43.218Z,73.29
2022-11-15T18:54:13.360Z,73.10
2022-11-15T18:56:42.178Z,72.82
2022-11-15T18:59:11.293Z,72.90
2022-11-15T19:01:44.931Z,73.71
2022-11-15T19:04:15.889Z,74.10
2022-11-15T19:06:46.094Z,74.01
2022-11-15T19:09:16.321Z,74.03
2022-11-15T19:11:49.691Z,75.38
2022-11-15T19:14:18.687Z,75.85
2022-11-15T19:16:51.102Z,75.69
2022-11-15T19:19:20.694Z,76.47
2022-11-15T19:21:51.558Z,76.01
2022-11-15T19:24:22.676Z,75.34
2022-11-15T19:26:50.745Z,74.75
2022-11-15T19:29:25.158Z,74.78
2022-11-15T19:31:53.022Z,75.50
2022-11-15T19:34:24.305Z,75.80
2022-11-15T19:36:52.228Z,76.09
2022-11-15T19:39:20.093Z,76.33
2022-11-15T19:41:55.052Z,76.74
2022-11-15T19:44:22.757Z,77.18
2022-11-15T19:47:46.109Z,77.84
2022-11-15T19:50:15.513Z,78.08
2022-11-15T19:52:45.860Z,79.03
2022-11-15T19:55:15.454Z,78.82
2022-11-15T19:57:44.033Z,79.25
2022-11-15T20:00:12.452Z,78.96
2022-11-15T20:02:41.644Z,79.25
2022-11-15T20:05:12.989Z,79.39
2022-11-15T20:07:49.779Z,79.61
2022-11-15T20:10:20.818Z,79.53
2022-11-15T20:12:50.926Z,79.40
2022-11-15T20:15:18.894Z,79.05
2022-11-15T20:17:46.720Z,79.07
2022-11-15T20:20:22.204Z,80.11
2022-11-15T20:23:12.536Z,80.23
2022-11-15T20:26:01.461Z,79.88
2022-11-15T20:28:34.808Z,79.84
2022-11-15T20:31:09.339Z,80.34
2022-11-15T20:33:49.213Z,80.16
2022-11-15T20:36:29.809Z,80.59
2022-11-15T20:39:00.389Z,81.01
2022-11-15T20:41:51.040Z,80.86
2022-11-15T20:47:20.112Z,81.39
2022-11-15T20:49:47.867Z,81.51
2022-11-15T20:52:18.136Z,81.68
2022-11-15T20:54:50.395Z,81.66
2022-11-15T20:57:18.892Z,81.32
2022-11-15T20:59:46.858Z,81.50
2022-11-15T21:02:15.737Z,81.24
2022-11-15T21:04:43.944Z,81.45
2022-11-15T21:07:11.838Z,81.40
2022-11-15T21:09:59.075Z,81.33
2022-11-15T21:12:28.730Z,81.37
2022-11-15T21:14:56.740Z,81.24
2022-11-15T21:17:24.499Z,81.28
2022-11-15T21:19:53.789Z,81.28
2022-11-15T21:22:22.337Z,81.94
2022-11-15T21:24:50.317Z,81.41
2022-11-15T21:27:19.477Z,81.84
2022-11-15T21:29:49.692Z,81.38
2022-11-15T21:32:17.759Z,81.49
2022-11-15T21:34:45.625Z,81.51
2022-11-15T21:37:13.952Z,81.06
2022-11-15T21:39:41.950Z,80.92
2022-11-15T21:42:10.009Z,81.06
2022-11-15T21:44:37.955Z,81.58
2022-11-15T21:47:07.214Z,81.23
2022-11-15T21:49:35.169Z,81.78
2022-11-15T21:52:02.872Z,81.43
2022-11-15T21:54:30.553Z,81.83
2022-11-15T21:56:58.595Z,81.72
2022-11-15T21:59:26.521Z,81.34
2022-11-15T22:02:11.829Z,81.33
2022-11-15T22:07:26.692Z,81.45
2022-11-15T22:09:54.773Z,81.51
2022-11-15T22:12:28.446Z,81.35
2022-11-15T22:14:57.863Z,81.44
2022-11-15T22:17:45.666Z,81.38
2022-11-15T22:20:43.979Z,81.51
2022-11-15T22:23:03.229Z,82.19
2022-11-15T22:25:31.250Z,82.32
2022-11-15T22:27:58.900Z,82.38
2022-11-15T22:30:26.644Z,82.03
2022-11-15T22:32:54.964Z,81.91
2022-11-15T22:35:23.981Z,81.80
2022-11-15T22:37:52.786Z,81.95
2022-11-15T22:40:20.841Z,82.03
2022-11-15T22:42:48.601Z,82.21
2022-11-15T22:45:16.270Z,82.21
2022-11-15T22:47:44.129Z,82.23
2022-11-15T22:50:11.963Z,82.30
2022-11-15T22:52:41.027Z,82.37
2022-11-15T22:55:10.435Z,82.39
2022-11-15T22:57:39.294Z,82.33
2022-11-15T23:00:09.601Z,82.84
2022-11-15T23:02:37.639Z,82.79
2022-11-15T23:05:06.335Z,82.70
2022-11-15T23:07:34.604Z,82.88
2022-11-15T23:10:17.565Z,83.11
2022-11-15T23:13:02.684Z,83.02
2022-11-15T23:15:50.583Z,82.87
2022-11-15T23:18:18.215Z,82.63
2022-11-15T23:20:46.219Z,83.00
2022-11-15T23:23:12.965Z,82.94
2022-11-15T23:25:41.841Z,83.00
2022-11-15T23:28:09.595Z,83.06
2022-11-15T23:30:55.227Z,83.00
2022-11-15T23:33:43.725Z,83.09
2022-11-15T23:36:12.134Z,83.25
2022-11-15T23:38:40.382Z,83.34
2022-11-15T23:41:09.306Z,83.20
2022-11-15T23:43:37.145Z,83.35
2022-11-15T23:46:05.099Z,83.55
2022-11-15T23:48:32.883Z,83.69
2022-11-15T23:51:00.948Z,83.11
2022-11-15T23:53:28.690Z,83.51
2022-11-15T23:55:57.426Z,83.92
2022-11-15T23:58:26.463Z,83.78
